Time;durP1;ratioP1;P1;durP2;ratioP2;P2;SDS_P1;SDS_P2;PMS_P1;PMS_P2;Temp;Humidity;BMP_temperature;BMP_pressure;BME280_temperature;BME280_humidity;BME280_pressure;Samples;Min_cycle;Max_cycle;Signal;HPM_P1;HPM_P2
2023/09/07 00:00:00;;;;;;;29.83;26.40;;;;;;;19.27;100.00;99811.41;5052902;28;20050;-88
2023/09/07 00:02:27;;;;;;;34.03;26.05;;;;;;;19.10;100.00;99801.47;5068313;28;20028;-88
2023/09/07 00:04:52;;;;;;;34.25;27.42;;;;;;;19.20;100.00;99831.97;5053438;28;20028;-89
2023/09/07 00:07:17;;;;;;;33.53;27.30;;;;;;;19.21;100.00;99817.44;5054473;28;20555;-89
2023/09/07 00:09:43;;;;;;;33.00;26.25;;;;;;;19.17;100.00;99808.03;5057976;28;20428;-89
2023/09/07 00:12:08;;;;;;;31.90;25.85;;;;;;;19.36;100.00;99841.09;5054323;28;20021;-89
2023/09/07 00:14:35;;;;;;;30.05;25.42;;;;;;;19.21;100.00;99808.91;5054450;28;20056;-89
2023/09/07 00:17:01;;;;;;;31.60;25.42;;;;;;;19.33;100.00;99826.88;5054243;28;20093;-89
2023/09/07 00:19:27;;;;;;;35.30;27.02;;;;;;;19.32;100.00;99828.09;5054270;28;20074;-89
2023/09/07 00:21:52;;;;;;;31.08;26.85;;;;;;;19.27;100.00;99825.56;5054062;28;20020;-89
2023/09/07 00:24:18;;;;;;;34.90;26.95;;;;;;;19.15;100.00;99815.31;5054439;28;20472;-89
2023/09/07 00:26:45;;;;;;;33.58;26.83;;;;;;;19.28;100.00;99828.03;5053491;28;20056;-89
2023/09/07 00:29:10;;;;;;;34.08;25.60;;;;;;;19.26;100.00;99835.28;5054250;28;20032;-89
2023/09/07 00:31:36;;;;;;;31.05;26.60;;;;;;;19.12;100.00;99808.38;5053833;28;20094;-89
2023/09/07 00:34:01;;;;;;;43.00;27.15;;;;;;;19.24;100.00;99817.84;5054470;28;20029;-88
2023/09/07 00:36:27;;;;;;;30.00;26.17;;;;;;;19.41;100.00;99834.25;5054094;28;20054;-89
2023/09/07 00:38:52;;;;;;;30.98;26.40;;;;;;;19.26;100.00;99829.63;5053549;28;20024;-89
2023/09/07 00:41:18;;;;;;;31.15;27.10;;;;;;;19.17;100.00;99821.41;5053533;28;20035;-89
2023/09/07 00:43:43;;;;;;;29.20;25.83;;;;;;;19.19;100.00;99817.00;5054235;28;20480;-88
2023/09/07 00:46:09;;;;;;;33.92;27.55;;;;;;;19.18;100.00;99817.38;5061131;28;20108;-89
2023/09/07 00:48:35;;;;;;;31.67;25.65;;;;;;;19.28;100.00;99824.38;5053931;28;20039;-88
2023/09/07 00:51:00;;;;;;;31.55;27.58;;;;;;;19.32;100.00;99825.25;5054087;28;20025;-88
2023/09/07 00:53:27;;;;;;;39.45;27.95;;;;;;;19.52;100.00;99842.06;5054095;28;20564;-89
2023/09/07 00:55:55;;;;;;;28.15;23.88;;;;;;;19.76;100.00;99846.41;5071767;28;20457;-89
2023/09/07 00:58:21;;;;;;;31.92;25.27;;;;;;;19.62;100.00;99832.88;5053364;28;20032;-89
2023/09/07 01:00:47;;;;;;;35.78;26.65;;;;;;;19.35;100.00;99810.28;5053936;28;20067;-89
2023/09/07 01:03:13;;;;;;;31.58;24.80;;;;;;;19.36;100.00;99817.59;5065602;28;20035;-89
2023/09/07 01:05:51;;;;;;;30.20;24.48;;;;;;;19.46;100.00;99828.25;5069658;28;20036;-89
2023/09/07 01:08:25;;;;;;;30.10;23.33;;;;;;;19.42;100.00;99829.41;5057826;28;20082;-89
2023/09/07 01:10:51;;;;;;;29.88;22.92;;;;;;;19.30;100.00;99811.44;5057832;28;20350;-89
2023/09/07 01:13:18;;;;;;;26.55;22.85;;;;;;;19.69;100.00;99823.63;5057761;28;20424;-89
2023/09/07 01:15:43;;;;;;;32.45;24.40;;;;;;;19.86;100.00;99810.81;5057653;28;20029;-89
2023/09/07 01:18:10;;;;;;;26.60;22.15;;;;;;;19.94;100.00;99798.38;5056590;28;20047;-89
2023/09/07 01:20:39;;;;;;;27.50;21.80;;;;;;;20.05;100.00;99830.53;5057514;28;20028;-88
2023/09/07 01:23:04;;;;;;;27.23;22.17;;;;;;;19.65;100.00;99795.22;5057617;28;20106;-89
2023/09/07 01:25:32;;;;;;;25.13;22.50;;;;;;;19.54;100.00;99782.94;5057461;28;20567;-89
2023/09/07 01:27:58;;;;;;;27.70;22.67;;;;;;;19.35;100.00;99796.13;5057390;28;20032;-89
2023/09/07 01:30:25;;;;;;;27.52;23.20;;;;;;;19.40;100.00;99804.25;5075340;28;20025;-89
2023/09/07 01:32:51;;;;;;;32.42;23.73;;;;;;;19.41;100.00;99819.28;5057663;28;20457;-88
2023/09/07 01:35:21;;;;;;;34.08;23.80;;;;;;;19.16;100.00;99789.41;5074083;28;20051;-88
2023/09/07 01:37:47;;;;;;;30.20;25.45;;;;;;;19.06;100.00;99805.06;5057474;28;20466;-89
2023/09/07 01:40:13;;;;;;;28.48;22.92;;;;;;;19.12;100.00;99797.06;5053936;28;20491;-89
2023/09/07 01:42:38;;;;;;;32.53;24.20;;;;;;;19.35;100.00;99830.16;5055180;28;20028;-88
2023/09/07 01:45:04;;;;;;;27.60;23.67;;;;;;;19.28;100.00;99830.03;5037272;28;20029;-89
2023/09/07 01:47:30;;;;;;;41.80;23.83;;;;;;;19.36;100.00;99832.56;5056419;28;20119;-89
2023/09/07 01:49:55;;;;;;;26.83;23.00;;;;;;;19.32;100.00;99828.88;5062752;28;20048;-89
2023/09/07 01:52:21;;;;;;;24.83;21.67;;;;;;;19.17;100.00;99822.22;5074006;28;20108;-89
2023/09/07 01:54:46;;;;;;;30.98;24.70;;;;;;;19.05;100.00;99836.63;5073896;28;20052;-89
2023/09/07 01:57:12;;;;;;;31.58;24.42;;;;;;;19.09;100.00;99829.00;5060333;28;20024;-89
2023/09/07 01:59:37;;;;;;;32.78;24.88;;;;;;;19.05;100.00;99811.94;5056716;28;20016;-89
2023/09/07 02:02:03;;;;;;;27.55;24.13;;;;;;;19.27;100.00;99834.91;5054651;28;20390;-89
2023/09/07 02:04:28;;;;;;;30.02;24.15;;;;;;;19.37;100.00;99830.56;5073823;28;20107;-88
2023/09/07 02:06:54;;;;;;;27.23;23.63;;;;;;;19.52;100.00;99828.72;5061545;28;20036;-89
2023/09/07 02:09:19;;;;;;;29.67;23.27;;;;;;;19.30;100.00;99828.47;5056773;28;20032;-87
2023/09/07 02:11:45;;;;;;;29.42;23.88;;;;;;;19.35;100.00;99835.81;5056780;28;20552;-88
2023/09/07 02:14:10;;;;;;;30.42;24.00;;;;;;;19.13;100.00;99809.22;5056624;28;20125;-88
2023/09/07 02:16:36;;;;;;;27.50;23.88;;;;;;;19.23;100.00;99817.03;5056409;28;20039;-89
2023/09/07 02:19:03;;;;;;;28.05;23.73;;;;;;;19.14;100.00;99834.34;5055939;28;20029;-89
2023/09/07 02:21:29;;;;;;;32.30;25.70;;;;;;;18.78;100.00;99796.97;5056471;28;20123;-89
2023/09/07 02:23:55;;;;;;;30.20;24.35;;;;;;;18.85;100.00;99816.91;5073170;28;20028;-89
2023/09/07 02:26:20;;;;;;;37.53;26.63;;;;;;;18.89;100.00;99817.78;5056259;28;20024;-89
2023/09/07 02:28:46;;;;;;;30.13;24.85;;;;;;;19.02;100.00;99814.72;5056114;28;20511;-88
2023/09/07 02:31:11;;;;;;;31.02;24.17;;;;;;;18.91;100.00;99815.38;5056658;28;20040;-89
2023/09/07 02:33:37;;;;;;;29.65;25.00;;;;;;;18.85;100.00;99810.41;5056615;28;20029;-89
2023/09/07 02:36:02;;;;;;;27.63;24.63;;;;;;;18.78;100.00;99816.81;5056040;28;20427;-89
2023/09/07 02:38:28;;;;;;;34.47;25.92;;;;;;;18.94;100.00;99830.81;5056245;28;20107;-89
2023/09/07 02:40:55;;;;;;;38.00;25.95;;;;;;;18.88;100.00;99826.66;5065361;28;20032;-89
2023/09/07 02:43:22;;;;;;;28.15;25.08;;;;;;;18.84;100.00;99831.47;5068300;28;20050;-89
2023/09/07 02:45:48;;;;;;;31.33;24.95;;;;;;;19.11;100.00;99828.59;5072940;28;20411;-89
2023/09/07 02:48:14;;;;;;;26.05;23.23;;;;;;;19.34;100.00;99831.34;5055589;28;20028;-89
2023/09/07 02:50:39;;;;;;;35.30;24.88;;;;;;;19.50;100.00;99833.97;5056205;28;20119;-89
2023/09/07 02:53:05;;;;;;;34.45;24.50;;;;;;;19.25;100.00;99828.81;5055968;28;20039;-88
2023/09/07 02:55:31;;;;;;;32.30;26.10;;;;;;;19.01;100.00;99830.94;5061529;28;20036;-89
2023/09/07 02:57:57;;;;;;;38.10;26.45;;;;;;;18.84;100.00;99831.47;5073383;28;20067;-89
2023/09/07 03:00:23;;;;;;;31.60;26.08;;;;;;;18.93;100.00;99829.97;5073626;28;20031;-89
2023/09/07 03:02:48;;;;;;;31.02;26.02;;;;;;;18.79;100.00;99813.59;5055682;28;20436;-89
2023/09/07 03:05:15;;;;;;;28.27;23.55;;;;;;;18.85;100.00;99831.09;5056270;28;20039;-89
2023/09/07 03:07:40;;;;;;;32.47;26.20;;;;;;;18.83;100.00;99839.16;5055852;28;20424;-89
2023/09/07 03:10:06;;;;;;;33.17;27.20;;;;;;;18.63;100.00;99812.94;5055889;28;20032;-90
2023/09/07 03:12:32;;;;;;;35.30;26.75;;;;;;;19.06;100.00;99835.44;5069306;28;20071;-89
2023/09/07 03:14:57;;;;;;;31.95;25.58;;;;;;;18.85;100.00;99822.59;5072397;28;20119;-89
2023/09/07 03:17:23;;;;;;;37.75;27.58;;;;;;;18.74;100.00;99816.75;5059478;28;20020;-89
2023/09/07 03:19:48;;;;;;;36.75;26.15;;;;;;;19.03;100.00;99830.53;5055637;28;20050;-88
2023/09/07 03:22:14;;;;;;;38.38;27.63;;;;;;;18.71;100.00;99811.84;5055566;28;20020;-88
2023/09/07 03:24:40;;;;;;;36.65;26.05;;;;;;;18.69;100.00;99819.09;5055535;28;20025;-88
2023/09/07 03:27:05;;;;;;;32.40;26.10;;;;;;;18.80;100.00;99842.75;5054808;28;20035;-89
2023/09/07 03:29:33;;;;;;;30.50;25.05;;;;;;;18.63;100.00;99810.94;5054463;28;20017;-89
2023/09/07 03:31:59;;;;;;;37.92;25.77;;;;;;;18.99;100.00;99838.16;5055365;28;20040;-88
2023/09/07 03:34:25;;;;;;;34.13;24.67;;;;;;;19.19;100.00;99845.34;5055302;28;20478;-89
2023/09/07 03:36:51;;;;;;;28.60;24.02;;;;;;;19.35;100.00;99855.66;5054900;28;20545;-89
2023/09/07 03:39:18;;;;;;;36.20;25.23;;;;;;;19.27;100.00;99848.25;5037269;28;20028;-89
2023/09/07 03:41:44;;;;;;;29.40;23.75;;;;;;;19.43;100.00;99856.56;5053190;28;20409;-88
2023/09/07 03:44:09;;;;;;;26.92;22.40;;;;;;;19.53;100.00;99855.06;5054972;28;20119;-89
2023/09/07 03:46:35;;;;;;;28.50;24.05;;;;;;;19.60;100.00;99858.00;5055036;28;20024;-88
2023/09/07 03:49:00;;;;;;;39.22;24.00;;;;;;;19.40;100.00;99846.00;5055091;28;20016;-89
2023/09/07 03:51:26;;;;;;;30.35;23.60;;;;;;;19.15;100.00;99852.97;5055062;28;20058;-89
2023/09/07 03:53:51;;;;;;;32.55;26.50;;;;;;;19.05;100.00;99856.47;5054906;28;20025;-89
2023/09/07 03:56:17;;;;;;;36.58;25.90;;;;;;;18.88;100.00;99832.31;5054835;28;20024;-89
2023/09/07 03:58:42;;;;;;;37.28;24.38;;;;;;;18.99;100.00;99858.78;5054564;28;20071;-88
2023/09/07 04:01:08;;;;;;;36.50;24.85;;;;;;;19.26;100.00;99869.31;5054790;28;20032;-89
2023/09/07 04:03:33;;;;;;;40.85;25.58;;;;;;;19.26;100.00;99864.47;5054237;28;20021;-89
2023/09/07 04:05:59;;;;;;;30.30;24.75;;;;;;;19.18;100.00;99865.56;5054511;28;20033;-89
2023/09/07 04:08:24;;;;;;;30.98;24.92;;;;;;;19.21;100.00;99867.63;5054372;28;20114;-88
2023/09/07 04:10:50;;;;;;;31.30;24.98;;;;;;;19.20;100.00;99863.16;5054291;28;20039;-88
2023/09/07 04:13:15;;;;;;;33.63;24.27;;;;;;;19.10;100.00;99855.31;5053859;28;20048;-88
2023/09/07 04:15:42;;;;;;;31.27;25.67;;;;;;;19.37;100.00;99870.28;5072421;28;20024;-88
2023/09/07 04:18:07;;;;;;;32.28;25.33;;;;;;;19.49;100.00;99863.53;5054131;28;20173;-89
2023/09/07 04:20:33;;;;;;;33.20;24.13;;;;;;;19.40;100.00;99855.31;5054374;28;20076;-89
2023/09/07 04:22:58;;;;;;;35.35;24.73;;;;;;;19.48;100.00;99853.38;5054471;28;20056;-88
2023/09/07 04:25:25;;;;;;;38.53;24.77;;;;;;;19.60;100.00;99866.50;5054426;28;20020;-88
2023/09/07 04:27:51;;;;;;;35.60;25.10;;;;;;;19.45;100.00;99840.81;5050757;28;20021;-88
2023/09/07 04:30:16;;;;;;;35.97;24.50;;;;;;;19.78;100.00;99869.53;5048231;28;20039;-88
2023/09/07 04:32:42;;;;;;;34.33;23.63;;;;;;;19.70;100.00;99840.28;5053519;28;20443;-88
2023/09/07 04:35:11;;;;;;;32.70;23.08;;;;;;;20.04;100.00;99882.00;5070790;28;20492;-88
2023/09/07 04:37:36;;;;;;;32.30;21.02;;;;;;;20.01;100.00;99860.88;5053204;28;20508;-88
2023/09/07 04:40:02;;;;;;;30.58;23.38;;;;;;;19.91;100.00;99833.19;5052349;28;20086;-88
2023/09/07 04:42:33;;;;;;;26.33;22.70;;;;;;;20.19;100.00;99869.56;5048972;28;20059;-88
2023/09/07 04:44:59;;;;;;;39.80;22.70;;;;;;;20.13;100.00;99856.13;5050949;28;20070;-88
2023/09/07 04:47:52;;;;;;;31.45;22.88;;;;;;;20.28;100.00;99886.31;5070556;28;20865;-88
2023/09/07 04:54:43;;;;;;;31.80;22.75;;;;;;;19.77;100.00;99837.50;5020402;28;20029;-89
2023/09/07 04:57:56;;;;;;;31.55;23.67;;;;;;;20.14;100.00;99886.16;5046931;28;20040;-89
2023/09/07 05:00:41;;;;;;;35.45;24.67;;;;;;;19.89;100.00;99844.94;5034918;28;20041;-89
2023/09/07 05:03:18;;;;;;;35.88;24.80;;;;;;;20.14;100.00;99889.81;5053885;28;20355;-89
2023/09/07 05:06:22;;;;;;;40.10;24.58;;;;;;;19.39;100.00;99873.53;5054396;28;20031;-89
2023/09/07 05:09:31;;;;;;;;;;;;;;;;;;;;;
2023/09/07 05:20:55;;;;;;;;;;;;;;;;;;;;;
2023/09/07 05:23:43;;;;;;;;;;;;;;;;;;;;;
2023/09/07 05:26:20;;;;;;;33.80;24.17;;;;;;;19.35;100.00;99889.69;4899301;29;20038;-89
2023/09/07 05:32:26;;;;;;;32.20;25.52;;;;;;;19.46;100.00;99862.28;4996112;28;20039;-89
2023/09/07 05:34:52;;;;;;;27.17;22.70;;;;;;;19.40;100.00;99863.03;5030332;28;20039;-89
2023/09/07 05:37:17;;;;;;;30.00;22.45;;;;;;;19.76;100.00;99891.81;5047056;28;20032;-89
2023/09/07 05:39:42;;;;;;;29.58;23.42;;;;;;;19.73;100.00;99886.91;5069369;28;20481;-88
2023/09/07 05:42:08;;;;;;;29.23;23.40;;;;;;;19.88;100.00;99893.56;5050570;28;20119;-90
2023/09/07 05:44:34;;;;;;;28.70;24.42;;;;;;;19.93;100.00;99890.41;5049842;28;20512;-89
2023/09/07 05:46:59;;;;;;;41.75;26.23;;;;;;;19.87;100.00;99891.94;5043505;28;20027;-89
2023/09/07 05:49:58;;;;;;;26.77;21.77;;;;;;;19.75;100.00;99867.47;5044992;28;20025;-89
2023/09/07 05:52:24;;;;;;;24.73;21.45;;;;;;;19.63;100.00;99860.03;5052225;28;21072;-89
2023/09/07 05:54:49;;;;;;;25.75;21.20;;;;;;;19.59;100.00;99862.03;5059020;28;20112;-89
2023/09/07 05:57:15;;;;;;;34.45;22.08;;;;;;;19.78;100.00;99884.53;5037499;28;20059;-90
2023/09/07 05:59:40;;;;;;;26.88;19.92;;;;;;;19.86;100.00;99887.47;5037456;28;20090;-91
2023/09/07 06:02:06;;;;;;;24.88;19.70;;;;;;;19.95;100.00;99904.19;5050599;28;20031;-91
2023/09/07 06:04:32;;;;;;;22.20;18.10;;;;;;;19.71;100.00;99870.28;5051674;28;20029;-90
2023/09/07 06:06:57;;;;;;;22.83;18.73;;;;;;;19.87;100.00;99878.56;5045491;28;20043;-89
2023/09/07 06:09:23;;;;;;;30.63;19.40;;;;;;;20.10;100.00;99893.81;5055655;28;20028;-89
2023/09/07 06:11:48;;;;;;;28.55;19.52;;;;;;;20.23;100.00;99892.31;5054258;28;20484;-88
2023/09/07 06:14:14;;;;;;;31.23;19.27;;;;;;;20.23;100.00;99863.13;5056901;28;20052;-92
2023/09/07 06:16:40;;;;;;;22.73;19.30;;;;;;;20.37;100.00;99893.66;5056689;28;20025;-90
2023/09/07 06:19:07;;;;;;;24.42;19.17;;;;;;;20.06;100.00;99859.72;5047792;28;20055;-91
2023/09/07 06:21:33;;;;;;;29.48;19.40;;;;;;;20.01;100.00;99866.56;5055918;28;20117;-90
2023/09/07 06:23:58;;;;;;;30.70;17.77;;;;;;;20.16;100.00;99870.34;5054052;28;20029;-91
2023/09/07 06:26:25;;;;;;;25.98;18.52;;;;;;;20.46;100.00;99899.84;5059803;28;20031;-90
2023/09/07 06:28:50;;;;;;;31.92;17.83;;;;;;;20.42;100.00;99910.38;5049088;28;20090;-87
2023/09/07 06:31:16;;;;;;;26.00;19.05;;;;;;;20.23;100.00;99891.53;5041583;28;20024;-88
2023/09/07 06:33:41;;;;;;;23.10;18.70;;;;;;;20.47;100.00;99902.28;5058198;28;20033;-89
2023/09/07 06:36:07;;;;;;;27.33;19.52;;;;;;;20.57;100.00;99914.13;5061581;28;20044;-91
2023/09/07 06:38:32;;;;;;;24.60;19.80;;;;;;;20.53;100.00;99916.97;5042731;28;20028;-89
2023/09/07 06:40:58;;;;;;;32.15;19.92;;;;;;;20.52;100.00;99911.66;5055977;28;20036;-89
2023/09/07 06:43:23;;;;;;;24.65;19.35;;;;;;;20.48;100.00;99914.47;5050485;28;20200;-89
2023/09/07 06:45:48;;;;;;;26.65;19.08;;;;;;;20.40;100.00;99884.38;5051292;28;20036;-90
2023/09/07 06:48:16;;;;;;;29.02;19.85;;;;;;;20.68;100.00;99917.06;5056276;28;20485;-88
2023/09/07 06:50:42;;;;;;;30.38;21.95;;;;;;;20.72;100.00;99918.72;5042051;28;20036;-93
2023/09/07 06:57:16;;;;;;;22.30;17.80;;;;;;;20.59;100.00;99892.63;5073177;28;20047;-90
2023/09/07 07:03:11;;;;;;;29.65;19.05;;;;;;;20.99;100.00;99881.59;5065499;28;20043;-89
2023/09/07 07:05:36;;;;;;;28.63;19.63;;;;;;;21.02;100.00;99914.91;5051947;28;20048;-89
2023/09/07 07:08:02;;;;;;;31.88;19.88;;;;;;;20.99;100.00;99904.34;5050554;28;20032;-89
2023/09/07 07:10:27;;;;;;;28.42;21.33;;;;;;;21.13;100.00;99919.84;5064721;28;20097;-89
2023/09/07 07:12:53;;;;;;;28.88;21.38;;;;;;;21.34;100.00;99912.66;5052922;28;20036;-90
2023/09/07 07:15:18;;;;;;;27.73;21.85;;;;;;;21.12;100.00;99910.53;5053048;28;20025;-89
2023/09/07 07:17:44;;;;;;;32.13;21.88;;;;;;;21.12;98.79;99916.22;5091865;28;20036;-88
2023/09/07 07:20:10;;;;;;;27.33;22.58;;;;;;;21.30;99.93;99895.56;5054471;28;20071;-89
2023/09/07 07:22:37;;;;;;;32.17;21.10;;;;;;;21.55;97.93;99901.38;5052849;28;20069;-90
2023/09/07 07:26:04;;;;;;;30.33;20.25;;;;;;;21.60;93.72;99883.13;5050721;28;20493;-92
2023/09/07 07:28:29;;;;;;;21.63;19.17;;;;;;;21.71;93.69;99911.63;5035958;28;20524;-90
2023/09/07 07:30:55;;;;;;;28.58;19.65;;;;;;;21.59;90.96;99882.28;5060279;28;20056;-90
2023/09/07 07:33:21;;;;;;;24.52;17.75;;;;;;;22.11;91.17;99917.44;5050954;28;20032;-90
2023/09/07 07:35:46;;;;;;;24.88;18.80;;;;;;;21.97;90.32;99919.06;5042628;28;20021;-92
2023/09/07 07:38:13;;;;;;;19.27;16.98;;;;;;;22.00;89.69;99886.91;5047538;28;20021;-92
2023/09/07 07:40:54;;;;;;;24.90;17.90;;;;;;;22.33;90.18;99912.59;5050453;28;20111;-89
2023/09/07 07:43:30;;;;;;;31.85;18.73;;;;;;;22.09;89.49;99899.97;5047953;28;20522;-90
2023/09/07 07:45:59;;;;;;;32.90;18.83;;;;;;;22.77;89.06;99932.59;5045730;28;20024;-91
2023/09/07 07:51:55;;;;;;;27.48;16.30;;;;;;;22.75;85.17;99921.59;4958652;28;20042;-90
2023/09/07 07:54:22;;;;;;;28.48;16.27;;;;;;;22.95;85.71;99938.28;5043376;28;20044;-90
2023/09/07 07:56:48;;;;;;;23.60;18.20;;;;;;;22.97;85.74;99936.63;5052329;28;20422;-88
2023/09/07 07:59:13;;;;;;;22.40;16.65;;;;;;;22.93;84.23;99935.03;5053472;28;20052;-88
2023/09/07 08:01:39;;;;;;;23.40;13.15;;;;;;;22.92;80.23;99928.50;5046728;28;20029;-89
2023/09/07 08:04:05;;;;;;;19.75;14.20;;;;;;;22.80;82.23;99932.56;5049550;28;20060;-88
2023/09/07 08:06:30;;;;;;;14.60;11.65;;;;;;;22.46;81.23;99924.44;5052815;28;20523;-87
2023/09/07 08:08:56;;;;;;;22.73;14.50;;;;;;;22.48;82.78;99939.09;5048204;28;20016;-88
2023/09/07 08:11:21;;;;;;;22.52;15.57;;;;;;;22.85;84.00;99943.59;5049379;28;20020;-88
2023/09/07 08:13:47;;;;;;;18.30;13.60;;;;;;;22.98;82.88;99937.47;5059923;28;20152;-87
2023/09/07 08:16:12;;;;;;;17.90;13.80;;;;;;;23.10;82.50;99930.50;5054952;28;20055;-87
2023/09/07 08:18:39;;;;;;;17.77;14.38;;;;;;;23.12;82.08;99908.91;5048590;28;20565;-91
2023/09/07 08:21:05;;;;;;;17.83;13.88;;;;;;;23.37;79.77;99935.81;5051193;28;20021;-88
2023/09/07 08:23:31;;;;;;;24.85;15.77;;;;;;;23.48;79.56;99930.88;5049832;28;20386;-89
2023/09/07 08:25:56;;;;;;;21.63;14.98;;;;;;;23.57;79.71;99916.16;5053222;28;20028;-88
2023/09/07 08:28:22;;;;;;;22.02;14.82;;;;;;;23.73;78.13;99941.38;5052495;28;21742;-87
2023/09/07 08:30:54;;;;;;;23.20;12.63;;;;;;;23.66;74.83;99918.56;5062494;28;20023;-88
2023/09/07 08:33:22;;;;;;;26.15;12.48;;;;;;;23.83;74.24;99934.00;5054065;28;20425;-86
2023/09/07 08:35:52;;;;;;;16.33;11.32;;;;;;;23.73;74.26;99906.28;5051918;28;20089;-88
2023/09/07 08:38:19;;;;;;;;;;;;;;;23.84;75.53;99936.44;5054208;28;20113;-89
2023/09/07 08:40:48;;;;;;;23.88;11.48;;;;;;;23.98;74.99;99920.44;5053602;28;19919;-90
2023/09/07 08:43:45;;;;;;;101.00;15.48;;;;;;;24.09;73.33;99941.22;5039349;28;20036;-89
2023/09/07 08:46:24;;;;;;;15.52;11.27;;;;;;;23.91;71.63;99897.63;5051555;28;20033;-89
2023/09/07 08:48:54;;;;;;;12.27;8.80;;;;;;;23.84;72.63;99887.06;5053936;28;20044;-89
2023/09/07 08:51:23;;;;;;;18.15;10.07;;;;;;;24.05;71.95;99914.72;5057505;28;20476;-91
2023/09/07 08:54:19;;;;;;;14.87;10.37;;;;;;;24.06;70.70;99893.47;5039638;28;20099;-91
2023/09/07 08:56:47;;;;;;;19.02;10.52;;;;;;;23.31;70.86;99881.19;5033290;28;20037;-93
2023/09/07 08:59:16;;;;;;;13.90;9.15;;;;;;;23.76;70.59;99912.00;5052824;28;20491;-90
2023/09/07 09:01:42;;;;;;;25.63;9.70;;;;;;;23.70;70.71;99908.75;5051082;28;20111;-91
2023/09/07 09:04:08;;;;;;;12.02;9.43;;;;;;;24.14;69.56;99919.16;5050794;28;20123;-90
2023/09/07 09:06:36;;;;;;;15.23;9.00;;;;;;;23.73;68.40;99892.00;5045805;28;20562;-89
2023/09/07 09:09:05;;;;;;;13.98;9.63;;;;;;;23.25;69.00;99902.78;5048011;28;20082;-89
2023/09/07 09:11:30;;;;;;;14.25;10.00;;;;;;;23.67;71.14;99908.75;5047501;28;20021;-89
2023/09/07 09:13:56;;;;;;;14.63;10.38;;;;;;;23.85;70.37;99894.41;5042552;28;20046;-90
2023/09/07 09:16:21;;;;;;;34.50;11.50;;;;;;;23.67;69.67;99883.91;5052922;28;20016;-89
2023/09/07 09:18:56;;;;;;;15.73;10.52;;;;;;;23.45;70.85;99893.78;5051441;28;20024;-89
2023/09/07 09:21:23;;;;;;;18.15;11.75;;;;;;;23.29;70.19;99880.78;5051279;28;20076;-91
2023/09/07 09:23:53;;;;;;;20.48;10.82;;;;;;;23.88;71.99;99893.56;5067367;28;20228;-90
2023/09/07 09:26:19;;;;;;;;;;;;;;;24.19;73.13;99898.69;5051483;28;20101;-91
2023/09/07 09:28:45;;;;;;;18.27;11.82;;;;;;;24.36;70.34;99885.53;5054410;28;19916;-91
2023/09/07 09:31:17;;;;;;;13.20;10.60;;;;;;;24.54;66.63;99849.03;5056313;28;20064;-92
2023/09/07 09:33:48;;;;;;;17.58;9.98;;;;;;;25.07;64.72;99860.38;5050131;28;20036;-92
2023/09/07 09:36:14;;;;;;;14.43;10.82;;;;;;;25.28;63.79;99872.81;5056735;28;20039;-90
2023/09/07 09:38:39;;;;;;;16.58;10.70;;;;;;;25.81;62.80;99861.13;5044790;28;20037;-90
2023/09/07 09:41:06;;;;;;;49.28;11.50;;;;;;;26.19;61.88;99852.41;5047160;28;20032;-91
2023/09/07 09:43:31;;;;;;;20.83;10.75;;;;;;;26.43;59.18;99869.66;5048639;28;20036;-90
2023/09/07 09:45:59;;;;;;;18.23;10.82;;;;;;;26.41;58.64;99900.78;5049830;28;20040;-91
2023/09/07 09:48:27;;;;;;;19.45;11.13;;;;;;;26.13;59.23;99867.66;5039583;28;20035;-91
2023/09/07 09:50:53;;;;;;;12.77;9.07;;;;;;;26.34;59.69;99870.16;5070381;28;20111;-91
2023/09/07 09:53:20;;;;;;;13.35;9.90;;;;;;;26.26;57.56;99877.28;5053226;28;20020;-89
2023/09/07 09:55:47;;;;;;;15.43;8.80;;;;;;;26.14;57.26;99852.84;5050325;28;20029;-90
2023/09/07 09:58:22;;;;;;;17.02;8.88;;;;;;;26.44;57.17;99874.13;5046458;28;20020;-90
2023/09/07 10:00:50;;;;;;;14.68;9.00;;;;;;;26.23;55.93;99868.75;5047775;28;20115;-90
2023/09/07 10:03:34;;;;;;;13.20;8.95;;;;;;;26.31;58.74;99882.50;5044163;28;20036;-90
2023/09/07 10:06:18;;;;;;;13.15;9.40;;;;;;;26.69;57.18;99878.63;5036530;28;20112;-89
2023/09/07 10:09:17;;;;;;;14.38;9.70;;;;;;;27.17;54.60;99884.34;5069350;28;20511;-89
2023/09/07 10:12:11;;;;;;;16.15;9.85;;;;;;;26.48;56.20;99871.19;5032790;28;20140;-89
2023/09/07 10:14:55;;;;;;;14.40;9.82;;;;;;;26.83;56.63;99856.66;5077058;28;20102;-91
2023/09/07 10:17:33;;;;;;;14.38;8.68;;;;;;;26.81;53.52;99831.25;5046331;28;20053;-91
2023/09/07 10:20:12;;;;;;;10.50;7.68;;;;;;;27.40;52.88;99863.34;5036348;28;20044;-92
2023/09/07 10:22:37;;;;;;;23.90;8.00;;;;;;;27.30;52.60;99829.94;5036345;28;20111;-91
2023/09/07 10:25:03;;;;;;;13.10;7.95;;;;;;;27.77;51.64;99856.88;5036530;28;20549;-89
2023/09/07 10:27:38;;;;;;;12.40;8.05;;;;;;;27.78;49.03;99869.97;5048998;28;20028;-90
2023/09/07 10:30:10;;;;;;;14.88;8.38;;;;;;;27.91;49.96;99852.88;5042259;28;20020;-90
2023/09/07 10:32:47;;;;;;;15.63;8.27;;;;;;;27.77;49.25;99817.47;5052187;28;20112;-92
2023/09/07 10:35:22;;;;;;;19.30;9.07;;;;;;;27.72;49.55;99823.72;5055626;28;20052;-91
2023/09/07 10:37:48;;;;;;;14.05;8.70;;;;;;;27.98;50.00;99833.38;5044914;28;20020;-89
2023/09/07 10:40:20;;;;;;;10.90;7.60;;;;;;;28.15;47.23;99848.59;5054001;28;20028;-90
2023/09/07 10:42:45;;;;;;;15.57;8.30;;;;;;;27.28;48.45;99838.19;5070814;28;20020;-91
2023/09/07 10:45:15;;;;;;;15.77;8.82;;;;;;;27.70;49.64;99844.28;5050475;28;20021;-91
2023/09/07 10:47:45;;;;;;;14.18;8.57;;;;;;;28.09;49.38;99838.06;5045029;28;20154;-92
2023/09/07 10:50:12;;;;;;;12.95;8.35;;;;;;;28.27;47.45;99823.28;5051524;28;20447;-92
2023/09/07 10:52:40;;;;;;;13.43;8.20;;;;;;;28.21;48.13;99846.00;5072525;28;20021;-92
2023/09/07 10:55:06;;;;;;;9.15;8.07;;;;;;;27.95;47.61;99833.47;5054374;28;20036;-92
2023/09/07 10:57:31;;;;;;;9.38;7.40;;;;;;;28.03;47.47;99804.09;5050806;28;20017;-90
2023/09/07 10:59:57;;;;;;;10.02;7.30;;;;;;;28.13;47.61;99833.03;5049643;28;20082;-91
2023/09/07 11:02:22;;;;;;;11.60;8.10;;;;;;;28.30;47.63;99836.75;5054652;28;20080;-90
2023/09/07 11:11:22;;;;;;;16.60;8.93;;;;;;;28.52;45.71;99830.47;5061645;28;20029;-89
2023/09/07 11:13:57;;;;;;;11.10;7.50;;;;;;;28.63;45.02;99828.09;5060074;28;20069;-90
2023/09/07 11:16:27;;;;;;;14.90;8.73;;;;;;;28.14;46.46;99834.66;5044704;28;20044;-89
2023/09/07 11:18:54;;;;;;;15.48;8.57;;;;;;;27.50;48.21;99786.81;5050458;28;20052;-89
2023/09/07 11:22:38;;;;;;;11.63;8.00;;;;;;;27.66;47.35;99823.44;5050493;28;20483;-90
2023/09/07 11:28:00;;;;;;;14.30;8.30;;;;;;;27.12;46.51;99804.47;4985183;28;20039;-91
2023/09/07 11:30:26;;;;;;;14.02;8.70;;;;;;;26.73;48.04;99781.81;4973664;28;20045;-91
2023/09/07 11:37:15;;;;;;;13.35;8.18;;;;;;;27.23;47.32;99767.72;4881622;29;20032;-90
2023/09/07 11:39:40;;;;;;;9.85;6.72;;;;;;;27.81;47.15;99780.81;4873809;29;20047;-91
2023/09/07 11:42:11;;;;;;;16.92;10.90;;;;;;;28.12;45.66;99788.28;4969972;28;20045;-90
2023/09/07 11:48:02;;;;;;;18.88;9.73;;;;;;;27.93;44.77;99741.13;5071447;28;20115;-90
2023/09/07 11:50:30;;;;;;;13.40;9.20;;;;;;;28.19;44.41;99765.16;5050863;28;20064;-90
2023/09/07 11:52:56;;;;;;;14.82;9.88;;;;;;;28.03;42.75;99745.81;5046100;28;20037;-90
2023/09/07 11:55:23;;;;;;;14.75;10.38;;;;;;;27.97;44.36;99747.59;5036340;28;20028;-89
2023/09/07 11:57:49;;;;;;;18.05;7.55;;;;;;;28.16;43.35;99745.88;5046900;28;20044;-90
2023/09/07 12:00:15;;;;;;;10.85;8.65;;;;;;;28.08;42.25;99753.88;5053796;28;20123;-89
2023/09/07 12:02:41;;;;;;;19.75;10.35;;;;;;;28.26;45.77;99779.31;5054723;28;20024;-89
2023/09/07 12:05:14;;;;;;;17.25;8.13;;;;;;;28.06;42.97;99753.53;5054993;28;20028;-90
2023/09/07 12:07:40;;;;;;;10.70;8.05;;;;;;;28.28;43.41;99770.25;5048996;28;20036;-89
2023/09/07 12:10:10;;;;;;;11.95;7.45;;;;;;;28.21;42.93;99759.75;5051919;28;20483;-90